Flight Track Log - Related Links

Times and Time Zones

All times are in EDT time to prevent confusion due to time zone crossing. See the FLG3432 flight status page for this flight to view local times or setup timezone preferences in your user account.

Time Position Orientation Groundspeed Altitude Reporting Facility
EDT Latitude Longitude Course Direction KTS MPH feet Rate Location/Type
Thu 07:33:31 PM 40.8197 -111.9806 163° South 205 236 5,000  Level Salt Lake Center
Thu 07:34:26 PM 40.8722 -111.9853 356° North 200 230 6,600 1,714 Climbing Salt Lake Center
Thu 07:35:09 PM 40.9189 -111.9922 354° North 230 265 7,800 1,969 Climbing Salt Lake Center
Thu 07:36:00 PM 41.1283 -111.8130 108° East  Level FlightAware Approximate
Thu 07:36:34 PM 41.0267 -111.9964 358° North 278 320 10,800  Level Salt Lake Center
Thu 07:37:00 PM 41.0423 -111.7331 163° South  Level FlightAware Approximate
Thu 07:37:36 PM 41.0381 -111.9036 81° East 287 330 12,600  Level Salt Lake Center
Thu 07:38:00 PM 40.9322 -111.6877 163° South  Level FlightAware Approximate
Thu 07:38:38 PM 40.9692 -111.8392 145° Southeast 324 373 13,400  Level Salt Lake Center
Thu 07:39:40 PM 40.8931 -111.7631 143° Southeast 345 397 15,200 1,984 Climbing Salt Lake Center
Thu 07:40:42 PM 40.7978 -111.6669 143° Southeast 359 413 17,500 1,887 Climbing Salt Lake Center
Thu 07:41:44 PM 40.7364 -111.5544 126° Southeast 396 456 19,100 1,452 Climbing Salt Lake Center
Thu 07:42:46 PM 40.6964 -111.4161 111° Southeast 407 468 20,500 1,548 Climbing Salt Lake Center
Thu 07:43:48 PM 40.6558 -111.2736 111° Southeast 416 479 22,300 1,500 Climbing Salt Lake Center
Thu 07:44:50 PM 40.6144 -111.1303 111° Southeast 418 481 23,600 1,200 Climbing Salt Lake Center
Thu 07:45:53 PM 40.5706 -110.9806 111° Southeast 434 499 24,800 1,248 Climbing Salt Lake Center
Thu 07:46:55 PM 40.5167 -110.7978 111° Southeast 447 514 26,200 1,065 Climbing Salt Lake Center
Thu 07:47:57 PM 40.4572 -110.6531 118° Southeast 450 518 27,000 823 Climbing Salt Lake Center
Thu 07:48:59 PM 40.3853 -110.5131 124° Southeast 457 526 27,900 1,113 Climbing Salt Lake Center
Thu 07:50:01 PM 40.3025 -110.3581 125° Southeast 464 534 29,300 1,016 Climbing Salt Lake Center
Thu 07:51:03 PM 40.2317 -110.2236 125° Southeast 468 539 30,000 677 Climbing Salt Lake Center
Thu 07:52:05 PM 40.1589 -110.0889 125° Southeast 473 544 30,700 774 Climbing Salt Lake Center
Thu 07:53:07 PM 40.0733 -109.9283 125° Southeast 480 552 31,600 774 Climbing Salt Lake Center
Thu 07:54:09 PM 39.9989 -109.7908 125° Southeast 485 558 32,300 774 Climbing Salt Lake Center
Thu 07:55:11 PM 39.9125 -109.6292 125° Southeast 486 559 33,200 871 Climbing Salt Lake Center
Thu 07:56:13 PM 39.8386 -109.4939 125° Southeast 479 551 34,100 823 Climbing Salt Lake Center
Thu 07:57:15 PM 39.7533 -109.3375 125° Southeast 478 550 34,900 540 Climbing Salt Lake Center
Thu 07:57:53 PM 39.7036 -109.2475 126° Southeast 475 547 35,000 60 Climbing Denver Center
Thu 07:58:55 PM 39.6283 -109.1108 126° Southeast 487 560 35,000  Level Denver Center
Thu 07:59:57 PM 39.5397 -108.9522 126° Southeast 490 564 35,000  Level Denver Center
Thu 08:00:58 PM 39.4775 -108.8383 125° Southeast 494 568 35,000  Level Denver Center
Thu 08:03:03 PM 39.3008 -108.5203 126° Southeast 491 565 35,000  Level Denver Center
Thu 08:04:05 PM 39.2125 -108.3608 126° Southeast 491 565 35,000  Level Denver Center
Thu 08:05:07 PM 39.1367 -108.2250 126° Southeast 490 564 35,000  Level Denver Center
Thu 08:06:09 PM 39.0475 -108.0686 126° Southeast 486 559 35,000  Level Denver Center
Thu 08:07:11 PM 38.9708 -107.9344 126° Southeast 488 562 35,000  Level Denver Center
Thu 08:08:13 PM 38.8822 -107.7803 126° Southeast 480 552 35,000  Level Denver Center
Thu 08:09:15 PM 38.8061 -107.6492 127° Southeast 479 551 35,000  Level Denver Center
Thu 08:10:17 PM 38.7172 -107.4953 126° Southeast 482 555 35,000  Level Denver Center
Thu 08:11:19 PM 38.6192 -107.3939 141° Southeast 472 543 35,000  Level Denver Center
Thu 08:12:21 PM 38.5067 -107.2761 141° Southeast 468 539 35,000  Level Denver Center
Thu 08:13:23 PM 38.4111 -107.1761 141° Southeast 469 540 35,000  Level Denver Center
Thu 08:14:25 PM 38.2919 -107.1097 156° South 466 536 35,000  Level Denver Center
Thu 08:15:27 PM 38.1817 -107.0281 150° Southeast 463 533 35,000  Level Denver Center
Thu 08:16:29 PM 38.1156 -106.8397 114° Southeast 492 566 35,000  Level Denver Center
Thu 08:17:31 PM 38.0419 -106.7111 126° Southeast 475 547 35,000  Level Denver Center
Thu 08:18:33 PM 37.9094 -106.6606 163° South 446 513 35,000  Level Denver Center
Thu 08:19:36 PM 37.8025 -106.7203 204° Southwest 430 495 35,000  Level Denver Center
Thu 08:20:38 PM 37.7078 -106.8064 216° Southwest 436 502 35,000  Level Denver Center
Thu 08:21:40 PM 37.5764 -106.8411 192° South 446 513 35,000  Level Denver Center
Thu 08:22:42 PM 37.4706 -106.7686 151° Southeast 455 524 35,000  Level Denver Center
Thu 08:23:44 PM 37.3875 -106.6153 124° Southeast 474 545 35,000  Level Denver Center
Thu 08:24:45 PM 37.3414 -106.4936 115° Southeast 478 550 35,000  Level Denver Center
Thu 08:25:48 PM 37.2692 -106.3014 115° Southeast 477 549 35,000 48 Level Denver Center
Thu 08:26:50 PM 37.2139 -106.1556 115° Southeast 480 552 35,100  Climbing Denver Center
Thu 08:27:52 PM 37.1489 -105.9847 115° Southeast 484 557 35,000 -48 Descending Denver Center
Thu 08:28:54 PM 37.0928 -105.8358 115° Southeast 477 549 35,000  Level Denver Center
Thu 08:29:56 PM 37.0364 -105.6917 116° Southeast 481 554 35,000  Level Denver Center
Thu 08:31:10 PM 36.9731 -105.5244 115° Southeast 479 551 35,000  Level Denver Center
Thu 08:32:13 PM 36.8994 -105.3339 116° Southeast 478 550 35,000  Level Denver Center
Thu 08:33:02 PM 36.8522 -105.2144 116° Southeast 477 549 35,000 54 Level Albuquerque Center
Thu 08:34:04 PM 36.7961 -105.0708 116° Southeast 480 552 35,100  Climbing Albuquerque Center
Thu 08:35:05 PM 36.7308 -104.9053 116° Southeast 478 550 35,000 -49 Descending Albuquerque Center
Thu 08:36:07 PM 36.6744 -104.7653 117° Southeast 479 551 35,000  Level Albuquerque Center
Thu 08:37:08 PM 36.6150 -104.6153 116° Southeast 479 551 35,000  Level Albuquerque Center
Thu 08:38:10 PM 36.5564 -104.4675 116° Southeast 475 547 35,000  Level Albuquerque Center
Thu 08:39:11 PM 36.4978 -104.3200 116° Southeast 472 543 35,000  Level Albuquerque Center
Thu 08:40:13 PM 36.4381 -104.1733 117° Southeast 471 542 35,000 48 Level Albuquerque Center
Thu 08:41:15 PM 36.3683 -104.0006 117° Southeast 474 545 35,100  Climbing Albuquerque Center
Thu 08:42:16 PM 36.3086 -103.8522 117° Southeast 476 548 35,000 -49 Descending Albuquerque Center
Thu 08:43:18 PM 36.2483 -103.7058 117° Southeast 473 544 35,000  Level Albuquerque Center
Thu 08:44:19 PM 36.1900 -103.5608 116° Southeast 467 537 35,000  Level Albuquerque Center
Thu 08:45:21 PM 36.1300 -103.4169 117° Southeast 466 536 35,000  Level Albuquerque Center
Thu 08:46:22 PM 36.0717 -103.2756 117° Southeast 459 528 35,000  Level Albuquerque Center
Thu 08:47:24 PM 36.0147 -103.1383 117° Southeast 447 514 35,000  Level Albuquerque Center
Thu 08:48:25 PM 35.9578 -103.0014 117° Southeast 445 512 35,000  Level Albuquerque Center
Thu 08:49:27 PM 35.8989 -102.8603 117° Southeast 443 510 35,000  Level Albuquerque Center
Thu 08:50:29 PM 35.8422 -102.7275 118° Southeast 440 506 35,000  Level Albuquerque Center
Thu 08:51:30 PM 35.7861 -102.5939 117° Southeast 440 506 35,000  Level Albuquerque Center
Thu 08:52:32 PM 35.7281 -102.4603 118° Southeast 441 507 35,000  Level Albuquerque Center
Thu 08:53:33 PM 35.6711 -102.3244 117° Southeast 446 513 35,000  Level Albuquerque Center
Thu 08:54:35 PM 35.6139 -102.1892 117° Southeast 447 514 35,000  Level Albuquerque Center
Thu 08:55:36 PM 35.5431 -102.0286 118° Southeast 445 512 35,000  Level Albuquerque Center
Thu 08:56:38 PM 35.4864 -101.8917 117° Southeast 447 514 35,000  Level Albuquerque Center
Thu 08:57:39 PM 35.4264 -101.7556 118° Southeast 447 514 35,000  Level Albuquerque Center
Thu 08:58:41 PM 35.3750 -101.6347 118° Southeast 447 514 35,000 48 Level Albuquerque Center
Thu 08:59:43 PM 35.3139 -101.4989 119° Southeast 451 519 35,100  Climbing Albuquerque Center
Thu 09:00:44 PM 35.2444 -101.3347 117° Southeast 453 521 35,000 -49 Descending Albuquerque Center
Thu 09:01:46 PM 35.1847 -101.2042 119° Southeast 458 527 35,000  Level Albuquerque Center
Thu 09:02:47 PM 35.1253 -101.0689 118° Southeast 454 522 35,000  Level Albuquerque Center
Thu 09:03:49 PM 35.0656 -100.9350 119° Southeast 451 519 35,000  Level Albuquerque Center
Thu 09:04:50 PM 35.0064 -100.7997 118° Southeast 451 519 35,000  Level Albuquerque Center
Thu 09:05:52 PM 34.9458 -100.6664 119° Southeast 451 519 35,000  Level Albuquerque Center
Thu 09:06:53 PM 34.8731 -100.5044 119° Southeast 454 522 35,000  Level Albuquerque Center
Thu 09:07:55 PM 34.8114 -100.3672 119° Southeast 460 529 35,000  Level Albuquerque Center
Thu 09:08:56 PM 34.7461 -100.2219 119° Southeast 464 534 35,000 -146 Level Albuquerque Center
Thu 09:09:58 PM 34.6822 -100.0839 119° Southeast 467 537 34,700 -774 Descending Albuquerque Center
Thu 09:11:00 PM 34.6131 -99.9342 119° Southeast 475 547 33,400 -836 Descending Fort Worth Center
Thu 09:12:00 PM 34.5653 -99.8192 117° Southeast 457 526 33,000 -200 Descending Fort Worth Center
Thu 09:13:00 PM 34.4908 -99.6686 121° Southeast 462 532 33,000  Level Fort Worth Center
Thu 09:14:00 PM 34.4286 -99.5333 119° Southeast 457 526 33,000  Level Fort Worth Center
Thu 09:15:00 PM 34.3619 -99.3958 120° Southeast 462 532 33,000  Level Fort Worth Center
Thu 09:16:00 PM 34.3056 -99.2714 119° Southeast 468 539 33,000  Level Fort Worth Center
Thu 09:17:00 PM 34.2428 -99.1294 118° Southeast 474 545 33,000 -350 Level Fort Worth Center
Thu 09:18:00 PM 34.1678 -98.9772 121° Southeast 473 544 32,300 -1,300 Descending Fort Worth Center
Thu 09:19:00 PM 34.0983 -98.8331 120° Southeast 479 551 30,400 -2,000 Descending Fort Worth Center
Thu 09:20:00 PM 34.0333 -98.6892 119° Southeast 491 565 28,300 -2,050 Descending Fort Worth Center
Thu 09:21:00 PM 33.9678 -98.5506 120° Southeast 486 559 26,300 -2,000 Descending Fort Worth Center
Thu 09:22:00 PM 33.8917 -98.4294 127° Southeast 472 543 24,300 -2,150 Descending Fort Worth Center
Thu 09:23:00 PM 33.8133 -98.3083 128° Southeast 466 536 22,000 -2,200 Descending Fort Worth Center
Thu 09:24:00 PM 33.7347 -98.1878 128° Southeast 461 531 19,900 -2,150 Descending Fort Worth Center
Thu 09:25:00 PM 33.6664 -98.0822 128° Southeast 455 524 17,700 -2,150 Descending Fort Worth Center
Thu 09:26:00 PM 33.5981 -97.9719 127° Southeast 432 497 15,600 -2,250 Descending Fort Worth Center
Thu 09:27:00 PM 33.5214 -97.8544 128° Southeast 418 481 13,200 -2,200 Descending Fort Worth Center
Thu 09:28:00 PM 33.4611 -97.7619 128° Southeast 400 460 11,200 -1,140 Descending Fort Worth Center
Thu 09:29:01 PM 33.3989 -97.6672 128° Southeast 355 409 10,900 -783 Descending Fort Worth Center
Thu 09:29:32 PM 33.3667 -97.6167 127° Southeast 281 323 10,000 -1,624 Descending Dallas / Fort Worth TRACON
Thu 09:30:26 PM 33.3167 -97.5667 140° Southeast 284 327 8,600 -1,526 Descending Dallas / Fort Worth TRACON
Thu 09:31:26 PM 33.2833 -97.5000 121° Southeast 274 315 7,100 -1,450 Descending Dallas / Fort Worth TRACON
Thu 09:32:26 PM 33.2500 -97.4000 112° Southeast 275 316 5,700 -1,050 Descending Dallas / Fort Worth TRACON
Thu 09:33:26 PM 33.2333 -97.3167 103° East 278 320 5,000 -333 Descending Dallas / Fort Worth TRACON
Thu 09:34:32 PM 33.1833 -97.2333 126° Southeast 260 299 5,000 -92 Level Dallas / Fort Worth TRACON
Thu 09:35:37 PM 33.1333 -97.1667 132° Southeast 260 299 4,800 -762 Descending Dallas / Fort Worth TRACON
Thu 09:36:38 PM 33.0833 -97.1167 140° Southeast 249 287 3,400 -1,377 Descending Dallas / Fort Worth TRACON

Login

Don't have an account? Register now (free) for customized features, flight alerts, and more!